sensor_id;sensor_type;location;lat;lon;timestamp;P1;durP1;ratioP1;P2;durP2;ratioP2
45107;SDS011;30869;51.188;6.556;2022-11-20T00:00:37;12.27;;;7.95;;
45107;SDS011;30869;51.188;6.556;2022-11-20T00:03:04;17.35;;;10.68;;
45107;SDS011;30869;51.188;6.556;2022-11-20T00:05:31;19.98;;;10.65;;
45107;SDS011;30869;51.188;6.556;2022-11-20T00:07:57;25.80;;;14.02;;
45107;SDS011;30869;51.188;6.556;2022-11-20T00:10:24;12.52;;;7.40;;
45107;SDS011;30869;51.188;6.556;2022-11-20T00:12:49;9.60;;;6.88;;
45107;SDS011;30869;51.188;6.556;2022-11-20T00:15:15;17.92;;;10.27;;
45107;SDS011;30869;51.188;6.556;2022-11-20T00:17:41;15.13;;;7.82;;
45107;SDS011;30869;51.188;6.556;2022-11-20T00:20:07;13.57;;;8.05;;
45107;SDS011;30869;51.188;6.556;2022-11-20T00:22:33;18.55;;;12.73;;
45107;SDS011;30869;51.188;6.556;2022-11-20T00:24:59;11.98;;;7.90;;
45107;SDS011;30869;51.188;6.556;2022-11-20T00:27:24;15.60;;;9.32;;
45107;SDS011;30869;51.188;6.556;2022-11-20T00:29:50;14.98;;;8.38;;
45107;SDS011;30869;51.188;6.556;2022-11-20T00:32:16;17.27;;;7.80;;
45107;SDS011;30869;51.188;6.556;2022-11-20T00:34:42;15.75;;;8.40;;
45107;SDS011;30869;51.188;6.556;2022-11-20T00:37:07;12.57;;;7.57;;
45107;SDS011;30869;51.188;6.556;2022-11-20T00:39:33;25.88;;;12.50;;
45107;SDS011;30869;51.188;6.556;2022-11-20T00:41:59;11.68;;;7.43;;
45107;SDS011;30869;51.188;6.556;2022-11-20T00:44:25;16.65;;;8.10;;
45107;SDS011;30869;51.188;6.556;2022-11-20T00:46:51;38.40;;;20.00;;
45107;SDS011;30869;51.188;6.556;2022-11-20T00:49:17;14.55;;;8.48;;
45107;SDS011;30869;51.188;6.556;2022-11-20T00:51:43;12.73;;;7.72;;
45107;SDS011;30869;51.188;6.556;2022-11-20T00:54:08;17.35;;;10.60;;
45107;SDS011;30869;51.188;6.556;2022-11-20T00:56:34;13.63;;;7.65;;
45107;SDS011;30869;51.188;6.556;2022-11-20T00:59:00;12.75;;;6.72;;
45107;SDS011;30869;51.188;6.556;2022-11-20T01:01:26;17.33;;;10.32;;
45107;SDS011;30869;51.188;6.556;2022-11-20T01:03:55;11.68;;;7.10;;
45107;SDS011;30869;51.188;6.556;2022-11-20T01:06:23;13.32;;;7.68;;
45107;SDS011;30869;51.188;6.556;2022-11-20T01:08:50;19.58;;;10.32;;
45107;SDS011;30869;51.188;6.556;2022-11-20T01:11:19;12.73;;;7.85;;
45107;SDS011;30869;51.188;6.556;2022-11-20T01:13:48;12.18;;;7.53;;
45107;SDS011;30869;51.188;6.556;2022-11-20T01:16:16;11.93;;;7.03;;
45107;SDS011;30869;51.188;6.556;2022-11-20T01:18:43;22.58;;;13.50;;
45107;SDS011;30869;51.188;6.556;2022-11-20T01:21:12;26.23;;;12.95;;
45107;SDS011;30869;51.188;6.556;2022-11-20T01:23:43;27.90;;;14.63;;
45107;SDS011;30869;51.188;6.556;2022-11-20T01:26:10;23.48;;;13.18;;
45107;SDS011;30869;51.188;6.556;2022-11-20T01:28:40;22.00;;;12.55;;
45107;SDS011;30869;51.188;6.556;2022-11-20T01:31:26;17.00;;;8.23;;
45107;SDS011;30869;51.188;6.556;2022-11-20T01:34:02;14.25;;;7.47;;
45107;SDS011;30869;51.188;6.556;2022-11-20T01:36:30;9.95;;;6.28;;
45107;SDS011;30869;51.188;6.556;2022-11-20T01:38:58;14.23;;;9.05;;
45107;SDS011;30869;51.188;6.556;2022-11-20T01:41:26;14.05;;;9.15;;
45107;SDS011;30869;51.188;6.556;2022-11-20T01:44:14;29.70;;;14.38;;
45107;SDS011;30869;51.188;6.556;2022-11-20T01:46:58;26.25;;;14.55;;
45107;SDS011;30869;51.188;6.556;2022-11-20T01:49:31;11.02;;;7.55;;
45107;SDS011;30869;51.188;6.556;2022-11-20T01:52:05;10.52;;;7.05;;
45107;SDS011;30869;51.188;6.556;2022-11-20T01:54:38;12.30;;;6.97;;
45107;SDS011;30869;51.188;6.556;2022-11-20T01:57:07;16.88;;;8.80;;
45107;SDS011;30869;51.188;6.556;2022-11-20T01:59:37;11.77;;;6.97;;
45107;SDS011;30869;51.188;6.556;2022-11-20T02:02:09;19.85;;;12.20;;
45107;SDS011;30869;51.188;6.556;2022-11-20T02:04:35;13.52;;;7.50;;
45107;SDS011;30869;51.188;6.556;2022-11-20T02:07:02;12.70;;;7.15;;
45107;SDS011;30869;51.188;6.556;2022-11-20T02:09:30;29.63;;;13.98;;
45107;SDS011;30869;51.188;6.556;2022-11-20T02:11:55;20.95;;;11.05;;
45107;SDS011;30869;51.188;6.556;2022-11-20T02:14:22;12.18;;;7.28;;
45107;SDS011;30869;51.188;6.556;2022-11-20T02:16:49;14.32;;;7.43;;
45107;SDS011;30869;51.188;6.556;2022-11-20T02:19:28;13.02;;;8.00;;
45107;SDS011;30869;51.188;6.556;2022-11-20T02:22:00;9.40;;;6.80;;
45107;SDS011;30869;51.188;6.556;2022-11-20T02:24:32;8.25;;;6.43;;
45107;SDS011;30869;51.188;6.556;2022-11-20T02:27:01;11.30;;;7.20;;
45107;SDS011;30869;51.188;6.556;2022-11-20T02:29:34;11.43;;;7.07;;
45107;SDS011;30869;51.188;6.556;2022-11-20T02:32:18;11.52;;;6.95;;
45107;SDS011;30869;51.188;6.556;2022-11-20T02:34:51;11.50;;;6.97;;
45107;SDS011;30869;51.188;6.556;2022-11-20T02:37:16;10.13;;;6.88;;
45107;SDS011;30869;51.188;6.556;2022-11-20T02:39:44;9.77;;;7.00;;
45107;SDS011;30869;51.188;6.556;2022-11-20T02:42:12;12.10;;;7.32;;
45107;SDS011;30869;51.188;6.556;2022-11-20T02:44:38;10.45;;;7.10;;
45107;SDS011;30869;51.188;6.556;2022-11-20T02:47:04;8.98;;;6.38;;
45107;SDS011;30869;51.188;6.556;2022-11-20T02:49:30;11.25;;;7.82;;
45107;SDS011;30869;51.188;6.556;2022-11-20T02:51:56;10.95;;;6.90;;
45107;SDS011;30869;51.188;6.556;2022-11-20T02:54:22;9.45;;;7.00;;
45107;SDS011;30869;51.188;6.556;2022-11-20T02:56:48;13.18;;;7.90;;
45107;SDS011;30869;51.188;6.556;2022-11-20T02:59:16;9.65;;;6.25;;
45107;SDS011;30869;51.188;6.556;2022-11-20T03:01:42;8.98;;;6.80;;
45107;SDS011;30869;51.188;6.556;2022-11-20T03:04:08;9.88;;;6.85;;
45107;SDS011;30869;51.188;6.556;2022-11-20T03:06:34;11.95;;;7.25;;
45107;SDS011;30869;51.188;6.556;2022-11-20T03:09:00;10.45;;;6.63;;
45107;SDS011;30869;51.188;6.556;2022-11-20T03:11:26;11.27;;;6.40;;
45107;SDS011;30869;51.188;6.556;2022-11-20T03:13:52;10.90;;;7.18;;
45107;SDS011;30869;51.188;6.556;2022-11-20T03:16:19;11.70;;;6.55;;
45107;SDS011;30869;51.188;6.556;2022-11-20T03:18:46;8.38;;;6.13;;
45107;SDS011;30869;51.188;6.556;2022-11-20T03:21:12;11.90;;;6.57;;
45107;SDS011;30869;51.188;6.556;2022-11-20T03:23:39;9.27;;;6.03;;
45107;SDS011;30869;51.188;6.556;2022-11-20T03:28:34;8.68;;;6.63;;
45107;SDS011;30869;51.188;6.556;2022-11-20T03:31:35;17.17;;;10.32;;
45107;SDS011;30869;51.188;6.556;2022-11-20T03:33:55;17.67;;;9.63;;
45107;SDS011;30869;51.188;6.556;2022-11-20T03:36:21;7.47;;;5.65;;
45107;SDS011;30869;51.188;6.556;2022-11-20T03:38:47;9.45;;;7.07;;
45107;SDS011;30869;51.188;6.556;2022-11-20T03:41:15;9.25;;;6.72;;
45107;SDS011;30869;51.188;6.556;2022-11-20T03:43:49;14.73;;;8.85;;
45107;SDS011;30869;51.188;6.556;2022-11-20T03:46:25;17.33;;;9.98;;
45107;SDS011;30869;51.188;6.556;2022-11-20T03:48:52;22.33;;;12.82;;
45107;SDS011;30869;51.188;6.556;2022-11-20T03:51:19;10.60;;;7.10;;
45107;SDS011;30869;51.188;6.556;2022-11-20T03:53:47;20.08;;;12.05;;
45107;SDS011;30869;51.188;6.556;2022-11-20T03:56:14;21.35;;;10.75;;
45107;SDS011;30869;51.188;6.556;2022-11-20T03:58:42;18.52;;;10.55;;
45107;SDS011;30869;51.188;6.556;2022-11-20T04:01:09;20.58;;;12.73;;
45107;SDS011;30869;51.188;6.556;2022-11-20T04:03:37;17.27;;;9.52;;
45107;SDS011;30869;51.188;6.556;2022-11-20T04:06:08;29.83;;;15.55;;
45107;SDS011;30869;51.188;6.556;2022-11-20T04:08:40;18.17;;;11.02;;
45107;SDS011;30869;51.188;6.556;2022-11-20T04:13:51;14.75;;;8.88;;
45107;SDS011;30869;51.188;6.556;2022-11-20T04:16:19;28.83;;;15.60;;
45107;SDS011;30869;51.188;6.556;2022-11-20T04:18:46;25.70;;;14.13;;
45107;SDS011;30869;51.188;6.556;2022-11-20T04:21:12;9.25;;;7.05;;
45107;SDS011;30869;51.188;6.556;2022-11-20T04:23:38;27.58;;;15.43;;
45107;SDS011;30869;51.188;6.556;2022-11-20T04:26:11;9.70;;;6.30;;
45107;SDS011;30869;51.188;6.556;2022-11-20T04:28:37;18.92;;;10.98;;
45107;SDS011;30869;51.188;6.556;2022-11-20T04:33:34;10.10;;;6.72;;
45107;SDS011;30869;51.188;6.556;2022-11-20T04:36:01;13.32;;;7.57;;
45107;SDS011;30869;51.188;6.556;2022-11-20T04:38:29;30.65;;;15.95;;
45107;SDS011;30869;51.188;6.556;2022-11-20T04:40:58;17.25;;;10.82;;
45107;SDS011;30869;51.188;6.556;2022-11-20T04:43:25;26.20;;;14.98;;
45107;SDS011;30869;51.188;6.556;2022-11-20T04:45:54;22.83;;;12.85;;
45107;SDS011;30869;51.188;6.556;2022-11-20T04:48:21;14.05;;;7.32;;
45107;SDS011;30869;51.188;6.556;2022-11-20T04:50:46;9.73;;;7.10;;
45107;SDS011;30869;51.188;6.556;2022-11-20T04:53:12;23.52;;;14.15;;
45107;SDS011;30869;51.188;6.556;2022-11-20T04:55:39;18.42;;;10.35;;
45107;SDS011;30869;51.188;6.556;2022-11-20T04:58:05;10.25;;;6.57;;
45107;SDS011;30869;51.188;6.556;2022-11-20T05:00:31;15.30;;;9.35;;
45107;SDS011;30869;51.188;6.556;2022-11-20T05:02:57;23.65;;;13.32;;
45107;SDS011;30869;51.188;6.556;2022-11-20T05:05:23;12.80;;;9.45;;
45107;SDS011;30869;51.188;6.556;2022-11-20T05:07:49;24.13;;;13.57;;
45107;SDS011;30869;51.188;6.556;2022-11-20T05:10:14;10.23;;;6.70;;
45107;SDS011;30869;51.188;6.556;2022-11-20T05:12:40;10.57;;;7.00;;
45107;SDS011;30869;51.188;6.556;2022-11-20T05:15:06;11.63;;;7.47;;
45107;SDS011;30869;51.188;6.556;2022-11-20T05:17:32;12.75;;;8.68;;
45107;SDS011;30869;51.188;6.556;2022-11-20T05:19:58;30.75;;;14.90;;
45107;SDS011;30869;51.188;6.556;2022-11-20T05:22:24;10.43;;;6.93;;
45107;SDS011;30869;51.188;6.556;2022-11-20T05:24:49;8.93;;;6.55;;
45107;SDS011;30869;51.188;6.556;2022-11-20T05:27:15;35.65;;;16.65;;
45107;SDS011;30869;51.188;6.556;2022-11-20T05:29:41;23.65;;;12.27;;
45107;SDS011;30869;51.188;6.556;2022-11-20T05:32:06;10.48;;;7.30;;
45107;SDS011;30869;51.188;6.556;2022-11-20T05:34:34;9.25;;;6.03;;
45107;SDS011;30869;51.188;6.556;2022-11-20T05:37:01;17.15;;;10.30;;
45107;SDS011;30869;51.188;6.556;2022-11-20T05:39:27;10.77;;;6.78;;
45107;SDS011;30869;51.188;6.556;2022-11-20T05:41:53;33.60;;;17.38;;
45107;SDS011;30869;51.188;6.556;2022-11-20T05:44:38;12.27;;;7.07;;
45107;SDS011;30869;51.188;6.556;2022-11-20T05:47:04;30.20;;;17.35;;
45107;SDS011;30869;51.188;6.556;2022-11-20T05:49:30;9.57;;;6.82;;
45107;SDS011;30869;51.188;6.556;2022-11-20T05:51:56;25.45;;;13.35;;
45107;SDS011;30869;51.188;6.556;2022-11-20T05:54:22;12.65;;;7.68;;
45107;SDS011;30869;51.188;6.556;2022-11-20T05:56:48;33.00;;;16.63;;
45107;SDS011;30869;51.188;6.556;2022-11-20T05:59:14;16.02;;;9.20;;
45107;SDS011;30869;51.188;6.556;2022-11-20T06:01:40;11.23;;;6.78;;
45107;SDS011;30869;51.188;6.556;2022-11-20T06:04:05;10.73;;;7.18;;
45107;SDS011;30869;51.188;6.556;2022-11-20T06:06:31;24.77;;;13.43;;
45107;SDS011;30869;51.188;6.556;2022-11-20T06:08:56;13.10;;;7.43;;
45107;SDS011;30869;51.188;6.556;2022-11-20T06:11:23;10.00;;;6.45;;
45107;SDS011;30869;51.188;6.556;2022-11-20T06:13:49;10.32;;;6.80;;
45107;SDS011;30869;51.188;6.556;2022-11-20T06:16:16;9.18;;;6.75;;
45107;SDS011;30869;51.188;6.556;2022-11-20T06:18:43;13.27;;;7.85;;
45107;SDS011;30869;51.188;6.556;2022-11-20T06:21:11;29.45;;;16.00;;
45107;SDS011;30869;51.188;6.556;2022-11-20T06:23:38;11.38;;;7.38;;
45107;SDS011;30869;51.188;6.556;2022-11-20T06:26:06;31.40;;;16.90;;
45107;SDS011;30869;51.188;6.556;2022-11-20T06:28:33;16.98;;;9.60;;
45107;SDS011;30869;51.188;6.556;2022-11-20T06:30:59;11.85;;;6.93;;
45107;SDS011;30869;51.188;6.556;2022-11-20T06:33:25;24.50;;;14.52;;
45107;SDS011;30869;51.188;6.556;2022-11-20T06:35:51;17.05;;;10.27;;
45107;SDS011;30869;51.188;6.556;2022-11-20T06:38:17;27.77;;;15.23;;
45107;SDS011;30869;51.188;6.556;2022-11-20T06:40:43;12.40;;;8.02;;
45107;SDS011;30869;51.188;6.556;2022-11-20T06:43:09;9.25;;;7.45;;
45107;SDS011;30869;51.188;6.556;2022-11-20T06:45:35;11.00;;;6.68;;
45107;SDS011;30869;51.188;6.556;2022-11-20T06:48:01;31.33;;;15.77;;
45107;SDS011;30869;51.188;6.556;2022-11-20T06:50:27;9.35;;;6.00;;
45107;SDS011;30869;51.188;6.556;2022-11-20T06:52:53;10.93;;;7.47;;
45107;SDS011;30869;51.188;6.556;2022-11-20T06:55:19;24.25;;;12.50;;
45107;SDS011;30869;51.188;6.556;2022-11-20T06:57:45;12.25;;;7.53;;
45107;SDS011;30869;51.188;6.556;2022-11-20T07:00:10;14.07;;;8.38;;
45107;SDS011;30869;51.188;6.556;2022-11-20T07:02:37;13.23;;;7.78;;
45107;SDS011;30869;51.188;6.556;2022-11-20T07:05:03;10.95;;;7.18;;
45107;SDS011;30869;51.188;6.556;2022-11-20T07:07:29;12.73;;;7.68;;
45107;SDS011;30869;51.188;6.556;2022-11-20T07:09:55;9.32;;;7.30;;
45107;SDS011;30869;51.188;6.556;2022-11-20T07:12:20;9.57;;;6.35;;
45107;SDS011;30869;51.188;6.556;2022-11-20T07:14:46;30.35;;;15.73;;
45107;SDS011;30869;51.188;6.556;2022-11-20T07:17:12;23.13;;;13.60;;
45107;SDS011;30869;51.188;6.556;2022-11-20T07:19:38;29.67;;;17.40;;
45107;SDS011;30869;51.188;6.556;2022-11-20T07:22:04;16.55;;;9.85;;
45107;SDS011;30869;51.188;6.556;2022-11-20T07:24:29;10.60;;;7.13;;
45107;SDS011;30869;51.188;6.556;2022-11-20T07:26:55;21.17;;;13.35;;
45107;SDS011;30869;51.188;6.556;2022-11-20T07:29:21;16.55;;;9.10;;
45107;SDS011;30869;51.188;6.556;2022-11-20T07:31:46;31.05;;;15.80;;
45107;SDS011;30869;51.188;6.556;2022-11-20T07:34:12;12.35;;;7.78;;
45107;SDS011;30869;51.188;6.556;2022-11-20T07:36:38;9.98;;;7.00;;
45107;SDS011;30869;51.188;6.556;2022-11-20T07:39:04;32.33;;;17.80;;
45107;SDS011;30869;51.188;6.556;2022-11-20T07:41:30;14.98;;;7.13;;
45107;SDS011;30869;51.188;6.556;2022-11-20T07:43:56;29.58;;;16.92;;
45107;SDS011;30869;51.188;6.556;2022-11-20T07:46:22;9.57;;;7.22;;
45107;SDS011;30869;51.188;6.556;2022-11-20T07:48:48;11.57;;;7.30;;
45107;SDS011;30869;51.188;6.556;2022-11-20T07:51:13;11.82;;;6.97;;
45107;SDS011;30869;51.188;6.556;2022-11-20T07:53:39;14.55;;;6.88;;
45107;SDS011;30869;51.188;6.556;2022-11-20T07:56:05;42.70;;;18.40;;
45107;SDS011;30869;51.188;6.556;2022-11-20T07:58:31;27.67;;;14.75;;
45107;SDS011;30869;51.188;6.556;2022-11-20T08:01:06;11.45;;;7.35;;
45107;SDS011;30869;51.188;6.556;2022-11-20T08:03:32;9.48;;;6.68;;
45107;SDS011;30869;51.188;6.556;2022-11-20T08:05:58;11.27;;;7.13;;
45107;SDS011;30869;51.188;6.556;2022-11-20T08:08:27;11.77;;;6.70;;
45107;SDS011;30869;51.188;6.556;2022-11-20T08:10:53;19.90;;;11.98;;
45107;SDS011;30869;51.188;6.556;2022-11-20T08:13:41;30.13;;;15.63;;
45107;SDS011;30869;51.188;6.556;2022-11-20T08:16:25;33.70;;;16.73;;
45107;SDS011;30869;51.188;6.556;2022-11-20T08:18:51;14.63;;;8.43;;
45107;SDS011;30869;51.188;6.556;2022-11-20T08:21:17;11.55;;;7.80;;
45107;SDS011;30869;51.188;6.556;2022-11-20T08:23:42;10.82;;;7.55;;
45107;SDS011;30869;51.188;6.556;2022-11-20T08:26:08;60.42;;;26.50;;
45107;SDS011;30869;51.188;6.556;2022-11-20T08:28:34;12.60;;;7.72;;
45107;SDS011;30869;51.188;6.556;2022-11-20T08:31:00;13.02;;;7.05;;
45107;SDS011;30869;51.188;6.556;2022-11-20T08:33:26;10.35;;;7.07;;
45107;SDS011;30869;51.188;6.556;2022-11-20T08:35:52;20.95;;;12.65;;
45107;SDS011;30869;51.188;6.556;2022-11-20T08:38:19;33.63;;;18.45;;
45107;SDS011;30869;51.188;6.556;2022-11-20T08:40:45;30.15;;;16.70;;
45107;SDS011;30869;51.188;6.556;2022-11-20T08:43:30;30.25;;;16.33;;
45107;SDS011;30869;51.188;6.556;2022-11-20T08:45:56;11.32;;;7.03;;
45107;SDS011;30869;51.188;6.556;2022-11-20T08:48:22;29.45;;;15.45;;
45107;SDS011;30869;51.188;6.556;2022-11-20T08:50:48;22.98;;;13.57;;
45107;SDS011;30869;51.188;6.556;2022-11-20T08:53:13;24.98;;;14.52;;
45107;SDS011;30869;51.188;6.556;2022-11-20T08:55:39;16.50;;;9.70;;
45107;SDS011;30869;51.188;6.556;2022-11-20T08:58:05;30.85;;;17.58;;
45107;SDS011;30869;51.188;6.556;2022-11-20T09:00:32;17.67;;;10.63;;
45107;SDS011;30869;51.188;6.556;2022-11-20T09:02:58;34.88;;;18.80;;
45107;SDS011;30869;51.188;6.556;2022-11-20T09:05:25;36.47;;;18.15;;
45107;SDS011;30869;51.188;6.556;2022-11-20T09:07:51;34.33;;;17.75;;
45107;SDS011;30869;51.188;6.556;2022-11-20T09:10:20;36.88;;;18.45;;
45107;SDS011;30869;51.188;6.556;2022-11-20T09:12:48;18.17;;;11.60;;
45107;SDS011;30869;51.188;6.556;2022-11-20T09:15:14;15.20;;;9.70;;
45107;SDS011;30869;51.188;6.556;2022-11-20T09:17:40;33.13;;;16.45;;
45107;SDS011;30869;51.188;6.556;2022-11-20T09:20:05;11.82;;;8.15;;
45107;SDS011;30869;51.188;6.556;2022-11-20T09:22:31;13.75;;;7.65;;
45107;SDS011;30869;51.188;6.556;2022-11-20T09:24:57;16.02;;;8.93;;
45107;SDS011;30869;51.188;6.556;2022-11-20T09:27:23;33.85;;;17.50;;
45107;SDS011;30869;51.188;6.556;2022-11-20T09:29:49;16.83;;;8.95;;
45107;SDS011;30869;51.188;6.556;2022-11-20T09:32:14;25.33;;;12.80;;
45107;SDS011;30869;51.188;6.556;2022-11-20T09:34:40;9.80;;;7.35;;
45107;SDS011;30869;51.188;6.556;2022-11-20T09:37:05;32.30;;;15.48;;
45107;SDS011;30869;51.188;6.556;2022-11-20T09:39:31;53.95;;;20.63;;
45107;SDS011;30869;51.188;6.556;2022-11-20T09:42:10;40.00;;;17.65;;
45107;SDS011;30869;51.188;6.556;2022-11-20T09:44:53;56.58;;;21.52;;
45107;SDS011;30869;51.188;6.556;2022-11-20T09:47:47;39.88;;;17.52;;
45107;SDS011;30869;51.188;6.556;2022-11-20T09:50:34;49.55;;;18.08;;
45107;SDS011;30869;51.188;6.556;2022-11-20T09:53:18;13.98;;;7.97;;
45107;SDS011;30869;51.188;6.556;2022-11-20T09:56:00;9.60;;;6.85;;
45107;SDS011;30869;51.188;6.556;2022-11-20T09:58:40;9.07;;;6.32;;
45107;SDS011;30869;51.188;6.556;2022-11-20T10:01:16;34.95;;;15.07;;
45107;SDS011;30869;51.188;6.556;2022-11-20T10:07:08;36.08;;;15.23;;
45107;SDS011;30869;51.188;6.556;2022-11-20T10:09:42;67.25;;;22.77;;
45107;SDS011;30869;51.188;6.556;2022-11-20T10:12:24;51.45;;;22.40;;
45107;SDS011;30869;51.188;6.556;2022-11-20T10:31:02;50.25;;;21.60;;
45107;SDS011;30869;51.188;6.556;2022-11-20T10:33:34;49.85;;;22.17;;
45107;SDS011;30869;51.188;6.556;2022-11-20T10:38:56;47.65;;;22.10;;
45107;SDS011;30869;51.188;6.556;2022-11-20T10:41:32;52.03;;;22.50;;
45107;SDS011;30869;51.188;6.556;2022-11-20T10:46:43;54.22;;;21.65;;
45107;SDS011;30869;51.188;6.556;2022-11-20T10:49:12;49.30;;;23.25;;
45107;SDS011;30869;51.188;6.556;2022-11-20T11:00:03;88.05;;;16.95;;
45107;SDS011;30869;51.188;6.556;2022-11-20T11:02:41;58.80;;;18.70;;
45107;SDS011;30869;51.188;6.556;2022-11-20T11:05:23;91.68;;;17.13;;
45107;SDS011;30869;51.188;6.556;2022-11-20T11:08:00;200.70;;;24.63;;
45107;SDS011;30869;51.188;6.556;2022-11-20T11:13:06;48.25;;;18.02;;
45107;SDS011;30869;51.188;6.556;2022-11-20T11:15:37;63.15;;;19.73;;
45107;SDS011;30869;51.188;6.556;2022-11-20T11:18:04;68.93;;;20.20;;
45107;SDS011;30869;51.188;6.556;2022-11-20T11:20:34;95.15;;;20.30;;
45107;SDS011;30869;51.188;6.556;2022-11-20T11:22:59;52.80;;;22.85;;
45107;SDS011;30869;51.188;6.556;2022-11-20T11:25:27;123.82;;;18.08;;
45107;SDS011;30869;51.188;6.556;2022-11-20T11:27:59;76.20;;;18.92;;
45107;SDS011;30869;51.188;6.556;2022-11-20T11:30:28;38.97;;;19.45;;
45107;SDS011;30869;51.188;6.556;2022-11-20T11:33:06;105.03;;;17.42;;
45107;SDS011;30869;51.188;6.556;2022-11-20T11:35:38;45.83;;;21.00;;
45107;SDS011;30869;51.188;6.556;2022-11-20T11:38:14;60.60;;;17.27;;
45107;SDS011;30869;51.188;6.556;2022-11-20T11:40:43;38.47;;;18.83;;
45107;SDS011;30869;51.188;6.556;2022-11-20T11:43:20;100.53;;;24.52;;
45107;SDS011;30869;51.188;6.556;2022-11-20T11:46:32;47.20;;;19.80;;
45107;SDS011;30869;51.188;6.556;2022-11-20T11:51:35;52.33;;;20.92;;
45107;SDS011;30869;51.188;6.556;2022-11-20T11:54:11;56.17;;;20.17;;
45107;SDS011;30869;51.188;6.556;2022-11-20T11:56:45;80.30;;;18.45;;
45107;SDS011;30869;51.188;6.556;2022-11-20T11:59:12;47.42;;;20.10;;
45107;SDS011;30869;51.188;6.556;2022-11-20T12:01:59;38.53;;;18.00;;
45107;SDS011;30869;51.188;6.556;2022-11-20T12:04:44;46.08;;;18.90;;
45107;SDS011;30869;51.188;6.556;2022-11-20T12:07:20;38.20;;;19.25;;
45107;SDS011;30869;51.188;6.556;2022-11-20T12:09:55;41.13;;;18.65;;
45107;SDS011;30869;51.188;6.556;2022-11-20T12:12:25;42.60;;;19.70;;
45107;SDS011;30869;51.188;6.556;2022-11-20T12:14:57;36.30;;;18.83;;
45107;SDS011;30869;51.188;6.556;2022-11-20T12:17:23;47.15;;;17.23;;
45107;SDS011;30869;51.188;6.556;2022-11-20T12:19:49;36.80;;;16.30;;
45107;SDS011;30869;51.188;6.556;2022-11-20T12:25:02;50.80;;;13.60;;
45107;SDS011;30869;51.188;6.556;2022-11-20T12:27:39;39.08;;;18.25;;
45107;SDS011;30869;51.188;6.556;2022-11-20T12:30:24;44.63;;;16.13;;
45107;SDS011;30869;51.188;6.556;2022-11-20T12:33:04;44.35;;;14.48;;
45107;SDS011;30869;51.188;6.556;2022-11-20T12:36:04;40.65;;;18.65;;
45107;SDS011;30869;51.188;6.556;2022-11-20T12:41:15;49.58;;;19.23;;
45107;SDS011;30869;51.188;6.556;2022-11-20T12:44:34;38.40;;;18.65;;
45107;SDS011;30869;51.188;6.556;2022-11-20T12:53:28;42.88;;;18.63;;
45107;SDS011;30869;51.188;6.556;2022-11-20T13:01:52;42.17;;;20.65;;
45107;SDS011;30869;51.188;6.556;2022-11-20T13:07:15;44.97;;;18.92;;
45107;SDS011;30869;51.188;6.556;2022-11-20T13:09:43;46.38;;;21.13;;
45107;SDS011;30869;51.188;6.556;2022-11-20T13:17:50;51.35;;;22.27;;
45107;SDS011;30869;51.188;6.556;2022-11-20T13:20:27;48.05;;;20.98;;
45107;SDS011;30869;51.188;6.556;2022-11-20T13:22:54;50.40;;;20.98;;
45107;SDS011;30869;51.188;6.556;2022-11-20T13:25:29;56.10;;;20.40;;
45107;SDS011;30869;51.188;6.556;2022-11-20T13:27:57;37.10;;;16.85;;
45107;SDS011;30869;51.188;6.556;2022-11-20T13:30:25;49.70;;;19.15;;
45107;SDS011;30869;51.188;6.556;2022-11-20T13:32:56;48.97;;;20.60;;
45107;SDS011;30869;51.188;6.556;2022-11-20T13:38:26;41.45;;;19.98;;
45107;SDS011;30869;51.188;6.556;2022-11-20T13:40:55;47.38;;;20.70;;
45107;SDS011;30869;51.188;6.556;2022-11-20T13:43:44;40.15;;;16.77;;
45107;SDS011;30869;51.188;6.556;2022-11-20T13:46:13;50.05;;;19.50;;
45107;SDS011;30869;51.188;6.556;2022-11-20T13:48:43;47.75;;;23.35;;
45107;SDS011;30869;51.188;6.556;2022-11-20T13:51:14;47.47;;;20.80;;
45107;SDS011;30869;51.188;6.556;2022-11-20T13:56:34;50.90;;;22.42;;
45107;SDS011;30869;51.188;6.556;2022-11-20T14:02:10;52.20;;;22.75;;
45107;SDS011;30869;51.188;6.556;2022-11-20T14:04:42;52.78;;;23.30;;
45107;SDS011;30869;51.188;6.556;2022-11-20T14:07:10;50.33;;;21.83;;
45107;SDS011;30869;51.188;6.556;2022-11-20T14:09:37;35.80;;;15.20;;
45107;SDS011;30869;51.188;6.556;2022-11-20T14:12:03;42.17;;;17.58;;
45107;SDS011;30869;51.188;6.556;2022-11-20T14:14:46;37.90;;;16.65;;
45107;SDS011;30869;51.188;6.556;2022-11-20T14:19:54;57.40;;;24.23;;
45107;SDS011;30869;51.188;6.556;2022-11-20T14:22:25;46.03;;;20.95;;
45107;SDS011;30869;51.188;6.556;2022-11-20T14:27:38;41.47;;;19.65;;
45107;SDS011;30869;51.188;6.556;2022-11-20T14:30:15;43.40;;;21.00;;
45107;SDS011;30869;51.188;6.556;2022-11-20T14:32:44;50.50;;;21.85;;
45107;SDS011;30869;51.188;6.556;2022-11-20T14:37:54;38.58;;;18.92;;
45107;SDS011;30869;51.188;6.556;2022-11-20T14:40:25;54.22;;;23.10;;
45107;SDS011;30869;51.188;6.556;2022-11-20T14:43:01;53.53;;;23.83;;
45107;SDS011;30869;51.188;6.556;2022-11-20T14:45:42;38.25;;;18.70;;
45107;SDS011;30869;51.188;6.556;2022-11-20T14:48:08;35.80;;;16.67;;
45107;SDS011;30869;51.188;6.556;2022-11-20T14:50:35;47.63;;;21.38;;
45107;SDS011;30869;51.188;6.556;2022-11-20T14:53:03;47.55;;;20.52;;
45107;SDS011;30869;51.188;6.556;2022-11-20T14:55:36;43.20;;;21.58;;
45107;SDS011;30869;51.188;6.556;2022-11-20T14:58:03;51.03;;;22.90;;
45107;SDS011;30869;51.188;6.556;2022-11-20T15:00:31;57.28;;;25.33;;
45107;SDS011;30869;51.188;6.556;2022-11-20T15:02:58;46.40;;;21.70;;
45107;SDS011;30869;51.188;6.556;2022-11-20T15:05:26;54.17;;;23.52;;
45107;SDS011;30869;51.188;6.556;2022-11-20T15:08:11;48.47;;;21.17;;
45107;SDS011;30869;51.188;6.556;2022-11-20T15:10:38;35.25;;;16.85;;
45107;SDS011;30869;51.188;6.556;2022-11-20T15:13:11;40.13;;;18.85;;
45107;SDS011;30869;51.188;6.556;2022-11-20T15:18:24;38.92;;;16.45;;
45107;SDS011;30869;51.188;6.556;2022-11-20T15:20:58;40.35;;;15.75;;
45107;SDS011;30869;51.188;6.556;2022-11-20T15:23:27;41.83;;;19.45;;
45107;SDS011;30869;51.188;6.556;2022-11-20T15:25:54;41.58;;;19.90;;
45107;SDS011;30869;51.188;6.556;2022-11-20T15:28:21;38.20;;;17.95;;
45107;SDS011;30869;51.188;6.556;2022-11-20T15:31:09;36.28;;;16.83;;
45107;SDS011;30869;51.188;6.556;2022-11-20T15:33:37;43.30;;;21.90;;
45107;SDS011;30869;51.188;6.556;2022-11-20T15:36:03;39.03;;;19.23;;
45107;SDS011;30869;51.188;6.556;2022-11-20T15:38:29;42.38;;;20.58;;
45107;SDS011;30869;51.188;6.556;2022-11-20T15:40:54;41.53;;;20.30;;
45107;SDS011;30869;51.188;6.556;2022-11-20T15:43:21;45.70;;;22.45;;
45107;SDS011;30869;51.188;6.556;2022-11-20T15:45:54;44.13;;;20.75;;
45107;SDS011;30869;51.188;6.556;2022-11-20T15:48:41;40.17;;;20.17;;
45107;SDS011;30869;51.188;6.556;2022-11-20T15:53:35;45.63;;;22.25;;
45107;SDS011;30869;51.188;6.556;2022-11-20T15:56:01;32.53;;;16.02;;
45107;SDS011;30869;51.188;6.556;2022-11-20T15:58:28;42.08;;;20.65;;
45107;SDS011;30869;51.188;6.556;2022-11-20T16:00:54;48.33;;;20.55;;
45107;SDS011;30869;51.188;6.556;2022-11-20T16:03:20;51.55;;;23.13;;
45107;SDS011;30869;51.188;6.556;2022-11-20T16:05:46;51.60;;;22.80;;
45107;SDS011;30869;51.188;6.556;2022-11-20T16:08:11;37.70;;;16.73;;
45107;SDS011;30869;51.188;6.556;2022-11-20T16:10:37;51.13;;;21.52;;
45107;SDS011;30869;51.188;6.556;2022-11-20T16:13:04;49.65;;;21.80;;
45107;SDS011;30869;51.188;6.556;2022-11-20T16:15:56;56.10;;;23.20;;